sensor_id;sensor_type;location;lat;lon;timestamp;P1;durP1;ratioP1;P2;durP2;ratioP2
79410;SDS011;69635;50.964;6.948;2023-05-10T00:00:55;8.65;;;3.65;;
79410;SDS011;69635;50.964;6.948;2023-05-10T00:03:20;9.48;;;4.40;;
79410;SDS011;69635;50.964;6.948;2023-05-10T00:05:45;9.63;;;4.00;;
79410;SDS011;69635;50.964;6.948;2023-05-10T00:08:11;7.93;;;3.83;;
79410;SDS011;69635;50.964;6.948;2023-05-10T00:10:36;8.85;;;4.35;;
79410;SDS011;69635;50.964;6.948;2023-05-10T00:13:02;9.20;;;4.63;;
79410;SDS011;69635;50.964;6.948;2023-05-10T00:15:28;10.98;;;4.93;;
79410;SDS011;69635;50.964;6.948;2023-05-10T00:17:55;8.73;;;4.28;;
79410;SDS011;69635;50.964;6.948;2023-05-10T00:20:21;9.45;;;4.57;;
79410;SDS011;69635;50.964;6.948;2023-05-10T00:22:46;10.52;;;5.25;;
79410;SDS011;69635;50.964;6.948;2023-05-10T00:25:11;8.32;;;4.20;;
79410;SDS011;69635;50.964;6.948;2023-05-10T00:27:37;8.60;;;4.32;;
79410;SDS011;69635;50.964;6.948;2023-05-10T00:30:02;10.35;;;4.53;;
79410;SDS011;69635;50.964;6.948;2023-05-10T00:32:28;11.90;;;4.93;;
79410;SDS011;69635;50.964;6.948;2023-05-10T00:34:53;10.35;;;5.10;;
79410;SDS011;69635;50.964;6.948;2023-05-10T00:37:19;12.32;;;5.20;;
79410;SDS011;69635;50.964;6.948;2023-05-10T00:39:45;11.40;;;5.40;;
79410;SDS011;69635;50.964;6.948;2023-05-10T00:42:10;12.23;;;5.50;;
79410;SDS011;69635;50.964;6.948;2023-05-10T00:44:35;13.73;;;6.00;;
79410;SDS011;69635;50.964;6.948;2023-05-10T00:47:02;14.95;;;6.13;;
79410;SDS011;69635;50.964;6.948;2023-05-10T00:49:27;16.17;;;6.25;;
79410;SDS011;69635;50.964;6.948;2023-05-10T00:51:53;14.43;;;5.43;;
79410;SDS011;69635;50.964;6.948;2023-05-10T00:54:19;14.23;;;5.88;;
79410;SDS011;69635;50.964;6.948;2023-05-10T00:56:45;14.32;;;6.60;;
79410;SDS011;69635;50.964;6.948;2023-05-10T00:59:14;15.25;;;6.43;;
79410;SDS011;69635;50.964;6.948;2023-05-10T01:01:41;14.63;;;6.15;;
79410;SDS011;69635;50.964;6.948;2023-05-10T01:04:07;13.70;;;5.65;;
79410;SDS011;69635;50.964;6.948;2023-05-10T01:06:33;14.25;;;5.78;;
79410;SDS011;69635;50.964;6.948;2023-05-10T01:08:59;13.00;;;5.65;;
79410;SDS011;69635;50.964;6.948;2023-05-10T01:11:24;13.70;;;6.07;;
79410;SDS011;69635;50.964;6.948;2023-05-10T01:13:52;16.45;;;6.57;;
79410;SDS011;69635;50.964;6.948;2023-05-10T01:16:21;16.92;;;6.43;;
79410;SDS011;69635;50.964;6.948;2023-05-10T01:18:48;15.20;;;6.18;;
79410;SDS011;69635;50.964;6.948;2023-05-10T01:35:12;12.10;;;4.90;;
79410;SDS011;69635;50.964;6.948;2023-05-10T01:37:50;14.10;;;5.43;;
79410;SDS011;69635;50.964;6.948;2023-05-10T01:43:08;13.55;;;5.93;;
79410;SDS011;69635;50.964;6.948;2023-05-10T01:45:51;13.77;;;5.60;;
79410;SDS011;69635;50.964;6.948;2023-05-10T01:48:20;14.73;;;5.63;;
79410;SDS011;69635;50.964;6.948;2023-05-10T01:50:48;13.10;;;5.55;;
79410;SDS011;69635;50.964;6.948;2023-05-10T01:53:17;13.93;;;5.68;;
79410;SDS011;69635;50.964;6.948;2023-05-10T01:55:49;13.43;;;5.72;;
79410;SDS011;69635;50.964;6.948;2023-05-10T01:58:19;14.77;;;5.50;;
79410;SDS011;69635;50.964;6.948;2023-05-10T02:00:48;10.48;;;4.20;;
79410;SDS011;69635;50.964;6.948;2023-05-10T02:03:16;8.45;;;3.45;;
79410;SDS011;69635;50.964;6.948;2023-05-10T02:05:46;6.40;;;3.63;;
79410;SDS011;69635;50.964;6.948;2023-05-10T02:08:13;10.35;;;4.00;;
79410;SDS011;69635;50.964;6.948;2023-05-10T02:10:41;9.60;;;3.88;;
79410;SDS011;69635;50.964;6.948;2023-05-10T02:13:08;9.80;;;3.60;;
79410;SDS011;69635;50.964;6.948;2023-05-10T02:15:36;8.82;;;3.45;;
79410;SDS011;69635;50.964;6.948;2023-05-10T02:18:03;9.07;;;3.28;;
79410;SDS011;69635;50.964;6.948;2023-05-10T02:20:30;7.75;;;3.47;;
79410;SDS011;69635;50.964;6.948;2023-05-10T02:22:57;9.05;;;3.60;;
79410;SDS011;69635;50.964;6.948;2023-05-10T02:25:23;9.60;;;4.13;;
79410;SDS011;69635;50.964;6.948;2023-05-10T02:27:50;8.48;;;3.80;;
79410;SDS011;69635;50.964;6.948;2023-05-10T02:30:19;10.15;;;4.03;;
79410;SDS011;69635;50.964;6.948;2023-05-10T02:32:45;8.68;;;3.50;;
79410;SDS011;69635;50.964;6.948;2023-05-10T02:35:12;6.95;;;3.30;;
79410;SDS011;69635;50.964;6.948;2023-05-10T02:37:40;8.88;;;4.10;;
79410;SDS011;69635;50.964;6.948;2023-05-10T02:40:06;7.85;;;3.53;;
79410;SDS011;69635;50.964;6.948;2023-05-10T02:42:35;6.80;;;3.60;;
79410;SDS011;69635;50.964;6.948;2023-05-10T02:45:02;6.78;;;3.35;;
79410;SDS011;69635;50.964;6.948;2023-05-10T02:47:32;7.93;;;3.63;;
79410;SDS011;69635;50.964;6.948;2023-05-10T02:49:57;7.40;;;3.33;;
79410;SDS011;69635;50.964;6.948;2023-05-10T02:52:24;8.52;;;3.67;;
79410;SDS011;69635;50.964;6.948;2023-05-10T02:57:22;6.28;;;2.95;;
79410;SDS011;69635;50.964;6.948;2023-05-10T02:59:51;7.18;;;3.42;;
79410;SDS011;69635;50.964;6.948;2023-05-10T03:02:16;7.57;;;3.17;;
79410;SDS011;69635;50.964;6.948;2023-05-10T03:04:42;7.57;;;3.35;;
79410;SDS011;69635;50.964;6.948;2023-05-10T03:07:07;7.03;;;3.10;;
79410;SDS011;69635;50.964;6.948;2023-05-10T03:09:33;5.88;;;2.70;;
79410;SDS011;69635;50.964;6.948;2023-05-10T03:15:13;5.30;;;2.60;;
79410;SDS011;69635;50.964;6.948;2023-05-10T03:20:23;6.15;;;3.08;;
79410;SDS011;69635;50.964;6.948;2023-05-10T03:22:53;6.35;;;3.20;;
79410;SDS011;69635;50.964;6.948;2023-05-10T03:25:25;8.48;;;3.42;;
79410;SDS011;69635;50.964;6.948;2023-05-10T03:27:51;8.23;;;3.85;;
79410;SDS011;69635;50.964;6.948;2023-05-10T03:30:17;22.20;;;11.45;;
79410;SDS011;69635;50.964;6.948;2023-05-10T03:32:44;10.13;;;4.63;;
79410;SDS011;69635;50.964;6.948;2023-05-10T03:35:10;10.65;;;4.72;;
79410;SDS011;69635;50.964;6.948;2023-05-10T03:37:38;9.73;;;3.28;;
79410;SDS011;69635;50.964;6.948;2023-05-10T03:40:03;9.10;;;3.50;;
79410;SDS011;69635;50.964;6.948;2023-05-10T03:42:30;9.35;;;3.58;;
79410;SDS011;69635;50.964;6.948;2023-05-10T03:44:55;8.25;;;3.88;;
79410;SDS011;69635;50.964;6.948;2023-05-10T03:47:20;7.95;;;3.45;;
79410;SDS011;69635;50.964;6.948;2023-05-10T03:49:46;7.53;;;4.40;;
79410;SDS011;69635;50.964;6.948;2023-05-10T03:52:11;9.73;;;4.13;;
79410;SDS011;69635;50.964;6.948;2023-05-10T03:54:37;11.50;;;4.22;;
79410;SDS011;69635;50.964;6.948;2023-05-10T03:57:02;11.85;;;4.05;;
79410;SDS011;69635;50.964;6.948;2023-05-10T03:59:28;9.48;;;3.90;;
79410;SDS011;69635;50.964;6.948;2023-05-10T04:01:53;9.93;;;4.68;;
79410;SDS011;69635;50.964;6.948;2023-05-10T04:04:18;13.57;;;4.93;;
79410;SDS011;69635;50.964;6.948;2023-05-10T04:06:45;10.00;;;4.75;;
79410;SDS011;69635;50.964;6.948;2023-05-10T04:09:11;13.40;;;4.72;;
79410;SDS011;69635;50.964;6.948;2023-05-10T04:11:36;14.77;;;5.43;;
79410;SDS011;69635;50.964;6.948;2023-05-10T04:14:02;12.43;;;5.03;;
79410;SDS011;69635;50.964;6.948;2023-05-10T04:16:27;13.40;;;5.70;;
79410;SDS011;69635;50.964;6.948;2023-05-10T04:18:53;13.10;;;6.53;;
79410;SDS011;69635;50.964;6.948;2023-05-10T04:21:18;18.92;;;6.78;;
79410;SDS011;69635;50.964;6.948;2023-05-10T04:23:43;14.18;;;6.35;;
79410;SDS011;69635;50.964;6.948;2023-05-10T04:26:09;14.93;;;6.45;;
79410;SDS011;69635;50.964;6.948;2023-05-10T04:28:34;14.70;;;5.53;;
79410;SDS011;69635;50.964;6.948;2023-05-10T04:31:07;42.13;;;13.15;;
79410;SDS011;69635;50.964;6.948;2023-05-10T04:33:34;18.95;;;7.28;;
79410;SDS011;69635;50.964;6.948;2023-05-10T04:36:00;16.63;;;7.28;;
79410;SDS011;69635;50.964;6.948;2023-05-10T04:38:26;18.15;;;7.18;;
79410;SDS011;69635;50.964;6.948;2023-05-10T04:40:52;18.73;;;7.10;;
79410;SDS011;69635;50.964;6.948;2023-05-10T04:43:17;19.30;;;6.45;;
79410;SDS011;69635;50.964;6.948;2023-05-10T04:45:43;17.50;;;7.45;;
79410;SDS011;69635;50.964;6.948;2023-05-10T04:48:08;18.98;;;7.85;;
79410;SDS011;69635;50.964;6.948;2023-05-10T04:50:34;19.77;;;7.40;;
79410;SDS011;69635;50.964;6.948;2023-05-10T04:52:59;19.63;;;7.80;;
79410;SDS011;69635;50.964;6.948;2023-05-10T04:55:25;18.67;;;7.80;;
79410;SDS011;69635;50.964;6.948;2023-05-10T04:57:51;18.00;;;7.70;;
79410;SDS011;69635;50.964;6.948;2023-05-10T05:00:17;16.75;;;7.55;;
79410;SDS011;69635;50.964;6.948;2023-05-10T05:02:43;18.00;;;7.55;;
79410;SDS011;69635;50.964;6.948;2023-05-10T05:05:12;16.73;;;7.82;;
79410;SDS011;69635;50.964;6.948;2023-05-10T05:07:38;17.27;;;7.82;;
79410;SDS011;69635;50.964;6.948;2023-05-10T05:10:05;21.70;;;8.50;;
79410;SDS011;69635;50.964;6.948;2023-05-10T05:12:31;17.15;;;7.45;;
79410;SDS011;69635;50.964;6.948;2023-05-10T05:14:57;21.48;;;7.55;;
79410;SDS011;69635;50.964;6.948;2023-05-10T05:17:22;20.77;;;7.35;;
79410;SDS011;69635;50.964;6.948;2023-05-10T05:19:47;15.30;;;7.13;;
79410;SDS011;69635;50.964;6.948;2023-05-10T05:22:13;15.82;;;7.57;;
79410;SDS011;69635;50.964;6.948;2023-05-10T05:24:38;17.52;;;6.85;;
79410;SDS011;69635;50.964;6.948;2023-05-10T05:27:04;13.32;;;6.32;;
79410;SDS011;69635;50.964;6.948;2023-05-10T05:29:29;18.40;;;8.13;;
79410;SDS011;69635;50.964;6.948;2023-05-10T05:31:55;18.17;;;6.97;;
79410;SDS011;69635;50.964;6.948;2023-05-10T05:34:20;19.60;;;7.82;;
79410;SDS011;69635;50.964;6.948;2023-05-10T05:36:46;17.20;;;6.95;;
79410;SDS011;69635;50.964;6.948;2023-05-10T05:39:12;18.98;;;7.10;;
79410;SDS011;69635;50.964;6.948;2023-05-10T05:41:38;17.60;;;7.05;;
79410;SDS011;69635;50.964;6.948;2023-05-10T05:44:03;15.77;;;7.15;;
79410;SDS011;69635;50.964;6.948;2023-05-10T05:46:28;13.25;;;6.88;;
79410;SDS011;69635;50.964;6.948;2023-05-10T05:48:54;22.80;;;7.38;;
79410;SDS011;69635;50.964;6.948;2023-05-10T05:51:19;17.65;;;7.00;;
79410;SDS011;69635;50.964;6.948;2023-05-10T05:53:45;17.05;;;7.22;;
79410;SDS011;69635;50.964;6.948;2023-05-10T05:56:10;20.50;;;7.47;;
79410;SDS011;69635;50.964;6.948;2023-05-10T05:58:35;18.38;;;8.05;;
79410;SDS011;69635;50.964;6.948;2023-05-10T06:01:01;16.17;;;7.15;;
79410;SDS011;69635;50.964;6.948;2023-05-10T06:03:26;14.43;;;6.45;;
79410;SDS011;69635;50.964;6.948;2023-05-10T06:05:51;16.42;;;6.22;;
79410;SDS011;69635;50.964;6.948;2023-05-10T06:08:17;16.85;;;6.15;;
79410;SDS011;69635;50.964;6.948;2023-05-10T06:10:43;14.52;;;5.80;;
79410;SDS011;69635;50.964;6.948;2023-05-10T06:13:09;13.60;;;5.65;;
79410;SDS011;69635;50.964;6.948;2023-05-10T06:15:34;15.18;;;5.65;;
79410;SDS011;69635;50.964;6.948;2023-05-10T06:18:00;14.45;;;5.72;;
79410;SDS011;69635;50.964;6.948;2023-05-10T06:20:25;12.77;;;5.45;;
79410;SDS011;69635;50.964;6.948;2023-05-10T06:22:51;17.73;;;5.85;;
79410;SDS011;69635;50.964;6.948;2023-05-10T06:25:16;16.00;;;6.30;;
79410;SDS011;69635;50.964;6.948;2023-05-10T06:27:43;13.88;;;5.60;;
79410;SDS011;69635;50.964;6.948;2023-05-10T06:30:08;14.52;;;5.75;;
79410;SDS011;69635;50.964;6.948;2023-05-10T06:32:35;18.05;;;7.00;;
79410;SDS011;69635;50.964;6.948;2023-05-10T06:35:00;15.30;;;6.93;;
79410;SDS011;69635;50.964;6.948;2023-05-10T06:37:25;14.65;;;5.90;;
79410;SDS011;69635;50.964;6.948;2023-05-10T06:39:51;16.60;;;7.70;;
79410;SDS011;69635;50.964;6.948;2023-05-10T06:42:16;14.45;;;5.70;;
79410;SDS011;69635;50.964;6.948;2023-05-10T06:44:41;20.10;;;7.70;;
79410;SDS011;69635;50.964;6.948;2023-05-10T06:47:08;14.32;;;6.53;;
79410;SDS011;69635;50.964;6.948;2023-05-10T06:49:34;14.35;;;6.13;;
79410;SDS011;69635;50.964;6.948;2023-05-10T06:51:59;16.35;;;6.35;;
79410;SDS011;69635;50.964;6.948;2023-05-10T06:54:24;16.80;;;6.32;;
79410;SDS011;69635;50.964;6.948;2023-05-10T06:56:50;14.77;;;6.50;;
79410;SDS011;69635;50.964;6.948;2023-05-10T06:59:15;17.98;;;6.53;;
79410;SDS011;69635;50.964;6.948;2023-05-10T07:01:41;16.98;;;6.45;;
79410;SDS011;69635;50.964;6.948;2023-05-10T07:04:07;15.98;;;7.00;;
79410;SDS011;69635;50.964;6.948;2023-05-10T07:06:33;21.48;;;8.07;;
79410;SDS011;69635;50.964;6.948;2023-05-10T07:08:59;18.95;;;6.93;;
79410;SDS011;69635;50.964;6.948;2023-05-10T07:11:25;17.33;;;7.00;;
79410;SDS011;69635;50.964;6.948;2023-05-10T07:13:51;19.08;;;6.97;;
79410;SDS011;69635;50.964;6.948;2023-05-10T07:16:17;16.75;;;6.22;;
79410;SDS011;69635;50.964;6.948;2023-05-10T07:18:42;21.45;;;8.73;;
79410;SDS011;69635;50.964;6.948;2023-05-10T07:21:07;26.02;;;8.80;;
79410;SDS011;69635;50.964;6.948;2023-05-10T07:23:33;19.45;;;7.97;;
79410;SDS011;69635;50.964;6.948;2023-05-10T07:25:58;16.45;;;6.78;;
79410;SDS011;69635;50.964;6.948;2023-05-10T07:28:24;16.13;;;6.28;;
79410;SDS011;69635;50.964;6.948;2023-05-10T07:30:49;16.42;;;6.30;;
79410;SDS011;69635;50.964;6.948;2023-05-10T07:33:16;20.83;;;6.38;;
79410;SDS011;69635;50.964;6.948;2023-05-10T07:35:42;17.33;;;7.47;;
79410;SDS011;69635;50.964;6.948;2023-05-10T07:38:08;24.48;;;9.10;;
79410;SDS011;69635;50.964;6.948;2023-05-10T07:40:33;18.33;;;7.28;;
79410;SDS011;69635;50.964;6.948;2023-05-10T07:42:59;17.95;;;7.22;;
79410;SDS011;69635;50.964;6.948;2023-05-10T07:45:27;17.33;;;8.07;;
79410;SDS011;69635;50.964;6.948;2023-05-10T07:47:53;15.20;;;6.60;;
79410;SDS011;69635;50.964;6.948;2023-05-10T07:50:19;13.43;;;5.70;;
79410;SDS011;69635;50.964;6.948;2023-05-10T07:52:46;15.68;;;5.93;;
79410;SDS011;69635;50.964;6.948;2023-05-10T07:55:11;12.68;;;5.47;;
79410;SDS011;69635;50.964;6.948;2023-05-10T07:57:37;16.80;;;6.28;;
79410;SDS011;69635;50.964;6.948;2023-05-10T08:00:03;13.65;;;6.10;;
79410;SDS011;69635;50.964;6.948;2023-05-10T08:02:28;14.90;;;5.60;;
79410;SDS011;69635;50.964;6.948;2023-05-10T08:04:57;12.27;;;5.35;;
79410;SDS011;69635;50.964;6.948;2023-05-10T08:07:23;13.48;;;6.00;;
79410;SDS011;69635;50.964;6.948;2023-05-10T08:09:49;11.25;;;4.50;;
79410;SDS011;69635;50.964;6.948;2023-05-10T08:12:14;12.02;;;5.03;;
79410;SDS011;69635;50.964;6.948;2023-05-10T08:14:40;12.00;;;5.00;;
79410;SDS011;69635;50.964;6.948;2023-05-10T08:17:05;11.30;;;4.78;;
79410;SDS011;69635;50.964;6.948;2023-05-10T08:19:30;12.80;;;4.75;;
79410;SDS011;69635;50.964;6.948;2023-05-10T08:21:56;11.63;;;4.60;;
79410;SDS011;69635;50.964;6.948;2023-05-10T08:24:22;10.48;;;4.05;;
79410;SDS011;69635;50.964;6.948;2023-05-10T08:26:47;13.15;;;4.55;;
79410;SDS011;69635;50.964;6.948;2023-05-10T08:29:13;14.25;;;4.70;;
79410;SDS011;69635;50.964;6.948;2023-05-10T08:31:39;11.90;;;4.90;;
79410;SDS011;69635;50.964;6.948;2023-05-10T08:34:04;12.32;;;4.63;;
79410;SDS011;69635;50.964;6.948;2023-05-10T08:36:30;10.15;;;4.30;;
79410;SDS011;69635;50.964;6.948;2023-05-10T08:38:57;11.10;;;4.53;;
79410;SDS011;69635;50.964;6.948;2023-05-10T08:41:23;12.40;;;5.15;;
79410;SDS011;69635;50.964;6.948;2023-05-10T08:43:51;11.23;;;4.70;;
79410;SDS011;69635;50.964;6.948;2023-05-10T08:46:18;11.02;;;4.80;;
79410;SDS011;69635;50.964;6.948;2023-05-10T08:48:45;10.23;;;4.45;;
79410;SDS011;69635;50.964;6.948;2023-05-10T08:51:17;9.70;;;4.32;;
79410;SDS011;69635;50.964;6.948;2023-05-10T08:53:44;10.18;;;4.57;;
79410;SDS011;69635;50.964;6.948;2023-05-10T08:56:10;13.15;;;4.82;;
79410;SDS011;69635;50.964;6.948;2023-05-10T08:58:36;14.30;;;5.88;;
79410;SDS011;69635;50.964;6.948;2023-05-10T09:01:02;16.20;;;6.32;;
79410;SDS011;69635;50.964;6.948;2023-05-10T09:03:28;17.02;;;6.95;;
79410;SDS011;69635;50.964;6.948;2023-05-10T09:05:54;13.57;;;6.72;;
79410;SDS011;69635;50.964;6.948;2023-05-10T09:08:24;18.15;;;7.78;;
79410;SDS011;69635;50.964;6.948;2023-05-10T09:10:53;17.48;;;7.68;;
79410;SDS011;69635;50.964;6.948;2023-05-10T09:13:20;18.88;;;7.22;;
79410;SDS011;69635;50.964;6.948;2023-05-10T09:15:47;23.55;;;8.43;;
79410;SDS011;69635;50.964;6.948;2023-05-10T09:18:13;23.20;;;9.13;;
79410;SDS011;69635;50.964;6.948;2023-05-10T09:20:38;22.63;;;8.55;;
79410;SDS011;69635;50.964;6.948;2023-05-10T09:23:04;28.92;;;11.30;;
79410;SDS011;69635;50.964;6.948;2023-05-10T09:25:30;20.85;;;8.90;;
79410;SDS011;69635;50.964;6.948;2023-05-10T09:27:58;21.05;;;9.15;;
79410;SDS011;69635;50.964;6.948;2023-05-10T09:32:50;19.92;;;8.52;;
79410;SDS011;69635;50.964;6.948;2023-05-10T09:35:17;27.80;;;9.20;;
79410;SDS011;69635;50.964;6.948;2023-05-10T09:37:48;19.73;;;8.20;;
79410;SDS011;69635;50.964;6.948;2023-05-10T09:40:16;22.98;;;9.27;;
79410;SDS011;69635;50.964;6.948;2023-05-10T09:43:17;23.50;;;8.48;;
79410;SDS011;69635;50.964;6.948;2023-05-10T09:45:35;21.52;;;7.60;;
79410;SDS011;69635;50.964;6.948;2023-05-10T09:48:01;28.52;;;8.90;;
79410;SDS011;69635;50.964;6.948;2023-05-10T09:50:28;19.75;;;7.25;;
79410;SDS011;69635;50.964;6.948;2023-05-10T09:52:58;18.30;;;6.55;;
79410;SDS011;69635;50.964;6.948;2023-05-10T09:55:25;19.27;;;6.80;;
79410;SDS011;69635;50.964;6.948;2023-05-10T09:58:05;18.65;;;7.00;;
79410;SDS011;69635;50.964;6.948;2023-05-10T10:00:44;17.10;;;6.35;;
79410;SDS011;69635;50.964;6.948;2023-05-10T10:03:16;13.38;;;5.82;;
79410;SDS011;69635;50.964;6.948;2023-05-10T10:05:42;14.63;;;5.97;;
79410;SDS011;69635;50.964;6.948;2023-05-10T10:08:09;14.20;;;5.78;;
79410;SDS011;69635;50.964;6.948;2023-05-10T10:10:35;13.35;;;5.10;;
79410;SDS011;69635;50.964;6.948;2023-05-10T10:13:01;11.75;;;5.13;;
79410;SDS011;69635;50.964;6.948;2023-05-10T10:15:27;13.82;;;5.28;;
79410;SDS011;69635;50.964;6.948;2023-05-10T10:17:52;12.15;;;4.82;;
79410;SDS011;69635;50.964;6.948;2023-05-10T10:20:20;9.73;;;4.60;;
79410;SDS011;69635;50.964;6.948;2023-05-10T10:22:46;10.13;;;4.88;;
79410;SDS011;69635;50.964;6.948;2023-05-10T10:25:16;9.52;;;4.63;;
79410;SDS011;69635;50.964;6.948;2023-05-10T10:27:45;13.43;;;4.80;;
79410;SDS011;69635;50.964;6.948;2023-05-10T10:35:49;11.57;;;5.30;;
79410;SDS011;69635;50.964;6.948;2023-05-10T10:38:17;10.20;;;4.78;;
79410;SDS011;69635;50.964;6.948;2023-05-10T10:40:42;11.32;;;5.13;;
79410;SDS011;69635;50.964;6.948;2023-05-10T10:43:21;9.27;;;4.32;;
79410;SDS011;69635;50.964;6.948;2023-05-10T10:51:37;7.40;;;3.45;;
79410;SDS011;69635;50.964;6.948;2023-05-10T10:54:12;7.22;;;3.40;;
79410;SDS011;69635;50.964;6.948;2023-05-10T10:56:37;7.15;;;3.50;;
79410;SDS011;69635;50.964;6.948;2023-05-10T10:59:03;7.25;;;3.20;;
79410;SDS011;69635;50.964;6.948;2023-05-10T11:01:34;6.28;;;3.22;;
79410;SDS011;69635;50.964;6.948;2023-05-10T11:06:28;9.27;;;4.68;;
79410;SDS011;69635;50.964;6.948;2023-05-10T11:08:56;11.13;;;5.60;;
79410;SDS011;69635;50.964;6.948;2023-05-10T11:11:22;9.55;;;3.90;;
79410;SDS011;69635;50.964;6.948;2023-05-10T11:13:48;9.60;;;4.30;;
79410;SDS011;69635;50.964;6.948;2023-05-10T11:16:23;7.63;;;3.88;;
79410;SDS011;69635;50.964;6.948;2023-05-10T11:21:23;7.50;;;4.00;;
79410;SDS011;69635;50.964;6.948;2023-05-10T11:23:50;5.53;;;3.00;;
79410;SDS011;69635;50.964;6.948;2023-05-10T11:26:20;6.85;;;3.20;;
79410;SDS011;69635;50.964;6.948;2023-05-10T11:28:48;5.55;;;2.55;;
79410;SDS011;69635;50.964;6.948;2023-05-10T11:31:14;4.53;;;2.42;;
79410;SDS011;69635;50.964;6.948;2023-05-10T11:39:04;5.53;;;2.30;;
79410;SDS011;69635;50.964;6.948;2023-05-10T11:41:31;4.40;;;2.20;;
79410;SDS011;69635;50.964;6.948;2023-05-10T11:43:56;4.22;;;2.08;;
79410;SDS011;69635;50.964;6.948;2023-05-10T11:46:23;4.47;;;2.15;;
79410;SDS011;69635;50.964;6.948;2023-05-10T11:48:51;3.72;;;2.20;;
79410;SDS011;69635;50.964;6.948;2023-05-10T11:51:26;3.47;;;1.40;;
79410;SDS011;69635;50.964;6.948;2023-05-10T11:53:52;3.35;;;1.40;;
79410;SDS011;69635;50.964;6.948;2023-05-10T11:56:18;2.13;;;1.20;;
79410;SDS011;69635;50.964;6.948;2023-05-10T11:58:44;2.58;;;1.20;;
79410;SDS011;69635;50.964;6.948;2023-05-10T12:01:09;2.53;;;1.27;;
79410;SDS011;69635;50.964;6.948;2023-05-10T12:03:35;1.50;;;0.90;;
79410;SDS011;69635;50.964;6.948;2023-05-10T12:06:02;1.45;;;0.80;;
79410;SDS011;69635;50.964;6.948;2023-05-10T12:08:29;2.17;;;1.20;;
79410;SDS011;69635;50.964;6.948;2023-05-10T12:11:06;1.88;;;1.00;;
79410;SDS011;69635;50.964;6.948;2023-05-10T12:13:39;2.45;;;1.48;;
79410;SDS011;69635;50.964;6.948;2023-05-10T12:16:12;1.70;;;1.20;;
79410;SDS011;69635;50.964;6.948;2023-05-10T12:18:40;2.75;;;1.48;;
79410;SDS011;69635;50.964;6.948;2023-05-10T12:21:06;4.10;;;1.40;;
79410;SDS011;69635;50.964;6.948;2023-05-10T12:23:32;2.55;;;1.30;;
79410;SDS011;69635;50.964;6.948;2023-05-10T12:26:03;2.95;;;1.33;;
79410;SDS011;69635;50.964;6.948;2023-05-10T12:28:32;2.45;;;1.17;;
79410;SDS011;69635;50.964;6.948;2023-05-10T12:31:01;3.05;;;1.63;;
79410;SDS011;69635;50.964;6.948;2023-05-10T12:33:27;1.90;;;1.10;;
79410;SDS011;69635;50.964;6.948;2023-05-10T12:36:04;2.65;;;1.17;;
79410;SDS011;69635;50.964;6.948;2023-05-10T12:38:37;2.03;;;1.10;;
79410;SDS011;69635;50.964;6.948;2023-05-10T12:41:05;2.17;;;1.48;;
79410;SDS011;69635;50.964;6.948;2023-05-10T12:43:33;3.08;;;1.58;;
79410;SDS011;69635;50.964;6.948;2023-05-10T12:46:09;2.10;;;1.27;;
79410;SDS011;69635;50.964;6.948;2023-05-10T12:48:36;1.50;;;1.20;;
79410;SDS011;69635;50.964;6.948;2023-05-10T12:51:03;2.13;;;1.15;;
79410;SDS011;69635;50.964;6.948;2023-05-10T12:53:29;3.28;;;1.48;;
79410;SDS011;69635;50.964;6.948;2023-05-10T12:55:55;2.80;;;1.55;;
79410;SDS011;69635;50.964;6.948;2023-05-10T12:58:21;2.00;;;1.38;;
79410;SDS011;69635;50.964;6.948;2023-05-10T13:00:47;2.63;;;1.40;;
79410;SDS011;69635;50.964;6.948;2023-05-10T13:03:12;2.35;;;0.95;;
79410;SDS011;69635;50.964;6.948;2023-05-10T13:05:38;2.30;;;1.33;;
79410;SDS011;69635;50.964;6.948;2023-05-10T13:08:03;1.90;;;1.00;;
79410;SDS011;69635;50.964;6.948;2023-05-10T13:10:29;1.63;;;0.93;;
79410;SDS011;69635;50.964;6.948;2023-05-10T13:12:56;3.35;;;1.50;;
79410;SDS011;69635;50.964;6.948;2023-05-10T13:15:22;2.20;;;1.33;;
79410;SDS011;69635;50.964;6.948;2023-05-10T13:17:47;2.75;;;1.10;;
79410;SDS011;69635;50.964;6.948;2023-05-10T13:20:13;1.65;;;0.95;;
79410;SDS011;69635;50.964;6.948;2023-05-10T13:22:38;2.03;;;0.90;;
79410;SDS011;69635;50.964;6.948;2023-05-10T13:25:03;1.50;;;0.85;;
79410;SDS011;69635;50.964;6.948;2023-05-10T13:27:29;1.67;;;0.90;;
79410;SDS011;69635;50.964;6.948;2023-05-10T13:29:55;1.50;;;0.85;;
79410;SDS011;69635;50.964;6.948;2023-05-10T13:32:20;1.83;;;0.80;;
79410;SDS011;69635;50.964;6.948;2023-05-10T13:34:46;1.83;;;1.23;;
79410;SDS011;69635;50.964;6.948;2023-05-10T13:37:11;3.08;;;1.10;;
79410;SDS011;69635;50.964;6.948;2023-05-10T13:39:37;1.90;;;1.30;;
79410;SDS011;69635;50.964;6.948;2023-05-10T13:42:11;6.68;;;2.85;;
79410;SDS011;69635;50.964;6.948;2023-05-10T13:44:36;18.48;;;6.15;;
79410;SDS011;69635;50.964;6.948;2023-05-10T13:47:03;2.67;;;1.13;;
79410;SDS011;69635;50.964;6.948;2023-05-10T13:49:29;2.35;;;0.80;;
79410;SDS011;69635;50.964;6.948;2023-05-10T13:51:54;2.05;;;1.05;;
79410;SDS011;69635;50.964;6.948;2023-05-10T13:54:20;1.30;;;0.82;;
79410;SDS011;69635;50.964;6.948;2023-05-10T13:56:47;1.10;;;0.73;;
79410;SDS011;69635;50.964;6.948;2023-05-10T13:59:13;1.27;;;0.80;;
79410;SDS011;69635;50.964;6.948;2023-05-10T14:01:39;1.02;;;0.65;;
79410;SDS011;69635;50.964;6.948;2023-05-10T14:04:08;1.27;;;0.80;;
79410;SDS011;69635;50.964;6.948;2023-05-10T14:06:35;1.02;;;0.60;;
79410;SDS011;69635;50.964;6.948;2023-05-10T14:09:01;0.95;;;0.70;;
79410;SDS011;69635;50.964;6.948;2023-05-10T14:11:27;1.42;;;0.80;;
79410;SDS011;69635;50.964;6.948;2023-05-10T14:13:52;2.60;;;0.90;;
79410;SDS011;69635;50.964;6.948;2023-05-10T14:16:18;1.00;;;0.82;;
79410;SDS011;69635;50.964;6.948;2023-05-10T14:18:44;5.72;;;1.17;;
79410;SDS011;69635;50.964;6.948;2023-05-10T14:21:09;0.85;;;0.50;;
79410;SDS011;69635;50.964;6.948;2023-05-10T14:23:34;1.08;;;0.80;;
79410;SDS011;69635;50.964;6.948;2023-05-10T14:26:00;1.20;;;0.65;;
79410;SDS011;69635;50.964;6.948;2023-05-10T14:28:26;1.63;;;0.68;;
79410;SDS011;69635;50.964;6.948;2023-05-10T14:30:51;1.67;;;0.70;;
79410;SDS011;69635;50.964;6.948;2023-05-10T14:33:16;1.27;;;0.75;;
79410;SDS011;69635;50.964;6.948;2023-05-10T14:35:42;0.93;;;0.73;;
79410;SDS011;69635;50.964;6.948;2023-05-10T14:38:07;1.10;;;0.60;;
79410;SDS011;69635;50.964;6.948;2023-05-10T14:40:33;1.00;;;0.75;;
79410;SDS011;69635;50.964;6.948;2023-05-10T14:42:59;1.48;;;0.60;;
79410;SDS011;69635;50.964;6.948;2023-05-10T14:45:25;2.58;;;1.05;;
79410;SDS011;69635;50.964;6.948;2023-05-10T14:47:50;1.83;;;0.80;;
79410;SDS011;69635;50.964;6.948;2023-05-10T14:50:16;1.35;;;0.90;;
79410;SDS011;69635;50.964;6.948;2023-05-10T14:52:42;2.92;;;0.90;;
79410;SDS011;69635;50.964;6.948;2023-05-10T14:55:08;2.83;;;1.33;;
79410;SDS011;69635;50.964;6.948;2023-05-10T14:57:34;1.63;;;1.10;;
79410;SDS011;69635;50.964;6.948;2023-05-10T14:59:59;1.20;;;0.80;;
79410;SDS011;69635;50.964;6.948;2023-05-10T15:02:25;1.33;;;0.80;;
79410;SDS011;69635;50.964;6.948;2023-05-10T15:04:50;1.92;;;1.00;;
79410;SDS011;69635;50.964;6.948;2023-05-10T15:07:16;2.65;;;0.88;;
79410;SDS011;69635;50.964;6.948;2023-05-10T15:09:43;2.17;;;0.90;;
79410;SDS011;69635;50.964;6.948;2023-05-10T15:12:09;2.58;;;1.30;;
79410;SDS011;69635;50.964;6.948;2023-05-10T15:14:34;4.85;;;2.20;;
79410;SDS011;69635;50.964;6.948;2023-05-10T15:17:01;6.50;;;3.13;;
79410;SDS011;69635;50.964;6.948;2023-05-10T15:19:27;6.32;;;3.53;;
79410;SDS011;69635;50.964;6.948;2023-05-10T15:21:53;4.60;;;2.47;;
79410;SDS011;69635;50.964;6.948;2023-05-10T15:24:19;4.93;;;2.22;;
79410;SDS011;69635;50.964;6.948;2023-05-10T15:26:44;4.03;;;1.85;;